Time,TemperatureF,DewpointF,PressureIn,WindDirection,WindDirectionDegrees,WindSpeedMPH,WindSpeedGustMPH,Humidity,HourlyPrecipIn,Conditions,Clouds,dailyrainin,SoftwareType,DateUTC
2013-09-17 00:00:00,43.2,35.5,30.24,East,90,1.0,6.0,74,0.00,,,0.00,WeatherCatV1.15B25,2013-09-17 04:00:00,
2013-09-17 00:05:00,42.8,35.4,30.25,ENE,68,1.0,4.0,75,0.00,,,0.00,WeatherCatV1.15B25,2013-09-17 04:05:00,
2013-09-17 00:10:00,42.8,35.4,30.25,ENE,68,1.0,4.0,75,0.00,,,0.00,WeatherCatV1.15B25,2013-09-17 04:10:00,
2013-09-17 00:15:00,42.8,35.4,30.25,ENE,68,1.0,4.0,75,0.00,,,0.00,WeatherCatV1.15B25,2013-09-17 04:15:00,
2013-09-17 00:20:00,43.9,33.7,30.25,East,90,3.0,7.0,67,0.00,,,0.00,WeatherCatV1.15B25,2013-09-17 04:20:00,
2013-09-17 00:25:00,43.9,33.7,30.25,East,90,3.0,7.0,67,0.00,,,0.00,WeatherCatV1.15B25,2013-09-17 04:25:00,
2013-09-17 00:30:00,43.9,33.7,30.25,East,90,3.0,7.0,67,0.00,,,0.00,WeatherCatV1.15B25,2013-09-17 04:30:00,
2013-09-17 00:35:00,44.2,34.7,30.25,ESE,112,2.0,11.0,69,0.00,,,0.00,WeatherCatV1.15B25,2013-09-17 04:35:00,
2013-09-17 00:40:00,44.2,34.7,30.25,ESE,112,2.0,11.0,69,0.00,,,0.00,WeatherCatV1.15B25,2013-09-17 04:40:00,
2013-09-17 00:45:00,44.2,34.7,30.25,ESE,112,2.0,11.0,69,0.00,,,0.00,WeatherCatV1.15B25,2013-09-17 04:45:00,
2013-09-17 00:50:00,43.9,34.8,30.25,East,90,1.0,10.0,70,0.00,,,0.00,WeatherCatV1.15B25,2013-09-17 04:50:00,
2013-09-17 00:55:00,43.9,34.8,30.25,East,90,1.0,10.0,70,0.00,,,0.00,WeatherCatV1.15B25,2013-09-17 04:55:00,
2013-09-17 01:00:00,43.9,34.8,30.25,East,90,1.0,10.0,70,0.00,,,0.00,WeatherCatV1.15B25,2013-09-17 05:00:00,
2013-09-17 01:05:00,43.1,35.4,30.26,NNE,22,1.0,5.0,74,0.00,,,0.00,WeatherCatV1.15B25,2013-09-17 05:05:00,
2013-09-17 01:10:00,43.1,35.4,30.26,NNE,22,1.0,5.0,74,0.00,,,0.00,WeatherCatV1.15B25,2013-09-17 05:10:00,
2013-09-17 01:15:00,43.1,35.4,30.26,NNE,22,1.0,5.0,74,0.00,,,0.00,WeatherCatV1.15B25,2013-09-17 05:15:00,
2013-09-17 01:20:00,42.9,34.8,30.25,SSW,202,1.0,12.0,73,0.00,,,0.00,WeatherCatV1.15B25,2013-09-17 05:20:00,
2013-09-17 01:25:00,42.9,34.8,30.25,SSW,202,1.0,12.0,73,0.00,,,0.00,WeatherCatV1.15B25,2013-09-17 05:25:00,
2013-09-17 01:30:00,42.9,34.8,30.25,SSW,202,1.0,12.0,73,0.00,,,0.00,WeatherCatV1.15B25,2013-09-17 05:30:00,
2013-09-17 01:35:00,43.1,34.7,30.25,SE,135,1.0,9.0,72,0.00,,,0.00,WeatherCatV1.15B25,2013-09-17 05:35:00,
2013-09-17 01:40:00,43.1,34.7,30.25,SE,135,1.0,9.0,72,0.00,,,0.00,WeatherCatV1.15B25,2013-09-17 05:40:00,
2013-09-17 01:45:00,43.1,34.7,30.25,SE,135,1.0,9.0,72,0.00,,,0.00,WeatherCatV1.15B25,2013-09-17 05:45:00,
2013-09-17 01:50:00,42.8,36.1,30.27,West,270,1.0,4.0,77,0.00,,,0.00,WeatherCatV1.15B25,2013-09-17 05:50:00,
2013-09-17 01:55:00,42.8,36.1,30.27,West,270,1.0,4.0,77,0.00,,,0.00,WeatherCatV1.15B25,2013-09-17 05:55:00,
2013-09-17 02:00:00,42.8,36.1,30.27,West,270,1.0,4.0,77,0.00,,,0.00,WeatherCatV1.15B25,2013-09-17 06:00:00,
2013-09-17 02:05:00,43.1,34.7,30.27,NW,315,2.0,12.0,72,0.00,,,0.00,WeatherCatV1.15B25,2013-09-17 06:05:00,
2013-09-17 02:10:00,43.1,34.7,30.27,NW,315,2.0,12.0,72,0.00,,,0.00,WeatherCatV1.15B25,2013-09-17 06:10:00,
2013-09-17 02:15:00,43.1,34.7,30.27,NW,315,2.0,12.0,72,0.00,,,0.00,WeatherCatV1.15B25,2013-09-17 06:15:00,
2013-09-17 02:20:00,43.6,35.9,30.27,South,180,1.0,7.0,74,0.00,,,0.00,WeatherCatV1.15B25,2013-09-17 06:20:00,
2013-09-17 02:25:00,43.6,35.9,30.27,South,180,1.0,7.0,74,0.00,,,0.00,WeatherCatV1.15B25,2013-09-17 06:25:00,
2013-09-17 02:30:00,43.6,35.9,30.27,South,180,1.0,7.0,74,0.00,,,0.00,WeatherCatV1.15B25,2013-09-17 06:30:00,
2013-09-17 02:35:00,43.1,34.7,30.27,WSW,248,1.0,5.0,72,0.00,,,0.00,WeatherCatV1.15B25,2013-09-17 06:35:00,
2013-09-17 02:40:00,43.1,34.7,30.27,WSW,248,1.0,5.0,72,0.00,,,0.00,WeatherCatV1.15B25,2013-09-17 06:40:00,
2013-09-17 02:45:00,43.1,34.7,30.27,WSW,248,1.0,5.0,72,0.00,,,0.00,WeatherCatV1.15B25,2013-09-17 06:45:00,
2013-09-17 02:50:00,42.4,35.0,30.28,East,90,1.0,7.0,75,0.00,,,0.00,WeatherCatV1.15B25,2013-09-17 06:50:00,
2013-09-17 02:55:00,42.4,35.0,30.28,East,90,1.0,7.0,75,0.00,,,0.00,WeatherCatV1.15B25,2013-09-17 06:55:00,
2013-09-17 03:00:00,42.4,35.0,30.28,East,90,1.0,7.0,75,0.00,,,0.00,WeatherCatV1.15B25,2013-09-17 07:00:00,
2013-09-17 03:05:00,42.7,34.7,30.28,West,270,1.0,7.0,73,0.00,,,0.00,WeatherCatV1.15B25,2013-09-17 07:05:00,
2013-09-17 03:10:00,42.7,34.7,30.28,West,270,1.0,7.0,73,0.00,,,0.00,WeatherCatV1.15B25,2013-09-17 07:10:00,
2013-09-17 03:15:00,42.7,34.7,30.28,West,270,1.0,7.0,73,0.00,,,0.00,WeatherCatV1.15B25,2013-09-17 07:15:00,
2013-09-17 03:20:00,42.2,34.9,30.28,East,90,0.0,3.0,75,0.00,,,0.00,WeatherCatV1.15B25,2013-09-17 07:20:00,
2013-09-17 03:25:00,42.2,34.9,30.28,East,90,0.0,3.0,75,0.00,,,0.00,WeatherCatV1.15B25,2013-09-17 07:25:00,
2013-09-17 03:30:00,42.2,34.9,30.28,East,90,0.0,3.0,75,0.00,,,0.00,WeatherCatV1.15B25,2013-09-17 07:30:00,
2013-09-17 03:35:00,42.1,35.1,30.28,SSW,202,0.0,4.0,76,0.00,,,0.00,WeatherCatV1.15B25,2013-09-17 07:35:00,
2013-09-17 03:40:00,42.1,35.1,30.28,SSW,202,0.0,4.0,76,0.00,,,0.00,WeatherCatV1.15B25,2013-09-17 07:40:00,
2013-09-17 03:45:00,42.1,35.1,30.28,SSW,202,0.0,4.0,76,0.00,,,0.00,WeatherCatV1.15B25,2013-09-17 07:45:00,
2013-09-17 03:50:00,41.8,35.8,30.28,WSW,248,0.0,4.0,79,0.00,,,0.00,WeatherCatV1.15B25,2013-09-17 07:50:00,
2013-09-17 03:55:00,41.8,35.8,30.28,WSW,248,0.0,4.0,79,0.00,,,0.00,WeatherCatV1.15B25,2013-09-17 07:55:00,
2013-09-17 04:00:00,41.8,35.8,30.28,WSW,248,0.0,4.0,79,0.00,,,0.00,WeatherCatV1.15B25,2013-09-17 08:00:00,
2013-09-17 04:05:00,41.6,35.9,30.28,West,270,0.0,2.0,80,0.00,,,0.00,WeatherCatV1.15B25,2013-09-17 08:05:00,
2013-09-17 04:10:00,41.6,35.9,30.28,West,270,0.0,2.0,80,0.00,,,0.00,WeatherCatV1.15B25,2013-09-17 08:10:00,
2013-09-17 04:15:00,41.6,35.9,30.28,West,270,0.0,2.0,80,0.00,,,0.00,WeatherCatV1.15B25,2013-09-17 08:15:00,
2013-09-17 04:20:00,40.9,35.5,30.30,NNW,338,1.0,4.0,81,0.00,,,0.00,WeatherCatV1.15B25,2013-09-17 08:20:00,
2013-09-17 04:25:00,40.9,35.5,30.30,NNW,338,1.0,4.0,81,0.00,,,0.00,WeatherCatV1.15B25,2013-09-17 08:25:00,
2013-09-17 04:30:00,40.9,35.5,30.30,NNW,338,1.0,4.0,81,0.00,,,0.00,WeatherCatV1.15B25,2013-09-17 08:30:00,
2013-09-17 04:35:00,41.0,35.0,30.31,North,0,0.0,2.0,79,0.00,,,0.00,WeatherCatV1.15B25,2013-09-17 08:35:00,
2013-09-17 04:40:00,41.0,35.0,30.31,North,0,0.0,2.0,79,0.00,,,0.00,WeatherCatV1.15B25,2013-09-17 08:40:00,
2013-09-17 04:45:00,41.0,35.0,30.31,North,0,0.0,2.0,79,0.00,,,0.00,WeatherCatV1.15B25,2013-09-17 08:45:00,
2013-09-17 04:50:00,42.2,34.9,30.31,SW,225,1.0,9.0,75,0.00,,,0.00,WeatherCatV1.15B25,2013-09-17 08:50:00,
2013-09-17 04:55:00,42.2,34.9,30.31,SW,225,1.0,9.0,75,0.00,,,0.00,WeatherCatV1.15B25,2013-09-17 08:55:00,
2013-09-17 05:00:00,42.2,34.9,30.31,SW,225,1.0,9.0,75,0.00,,,0.00,WeatherCatV1.15B25,2013-09-17 09:00:00,
2013-09-17 05:05:00,43.2,33.4,30.32,SSW,202,2.0,7.0,68,0.00,,,0.00,WeatherCatV1.15B25,2013-09-17 09:05:00,
2013-09-17 05:10:00,43.2,33.4,30.32,SSW,202,2.0,7.0,68,0.00,,,0.00,WeatherCatV1.15B25,2013-09-17 09:10:00,
2013-09-17 05:15:00,43.2,33.4,30.32,SSW,202,2.0,7.0,68,0.00,,,0.00,WeatherCatV1.15B25,2013-09-17 09:15:00,
2013-09-17 05:20:00,43.4,33.9,30.33,South,180,1.0,9.0,69,0.00,,,0.00,WeatherCatV1.15B25,2013-09-17 09:20:00,
2013-09-17 05:25:00,43.4,33.9,30.33,South,180,1.0,9.0,69,0.00,,,0.00,WeatherCatV1.15B25,2013-09-17 09:25:00,
2013-09-17 05:30:00,43.4,33.9,30.33,South,180,1.0,9.0,69,0.00,,,0.00,WeatherCatV1.15B25,2013-09-17 09:30:00,
2013-09-17 05:35:00,43.0,34.2,30.34,SSE,158,1.0,5.0,71,0.00,,,0.00,WeatherCatV1.15B25,2013-09-17 09:35:00,
2013-09-17 05:40:00,43.0,34.2,30.34,SSE,158,1.0,5.0,71,0.00,,,0.00,WeatherCatV1.15B25,2013-09-17 09:40:00,
2013-09-17 05:45:00,43.0,34.2,30.34,SSE,158,1.0,5.0,71,0.00,,,0.00,WeatherCatV1.15B25,2013-09-17 09:45:00,
2013-09-17 05:50:00,43.4,33.9,30.35,East,90,1.0,12.0,69,0.00,,,0.00,WeatherCatV1.15B25,2013-09-17 09:50:00,
2013-09-17 05:55:00,43.4,33.9,30.35,East,90,1.0,12.0,69,0.00,,,0.00,WeatherCatV1.15B25,2013-09-17 09:55:00,
2013-09-17 06:00:00,43.4,33.9,30.35,East,90,1.0,12.0,69,0.00,,,0.00,WeatherCatV1.15B25,2013-09-17 10:00:00,
2013-09-17 06:05:00,43.1,34.7,30.35,SW,225,1.0,7.0,72,0.00,,,0.00,WeatherCatV1.15B25,2013-09-17 10:05:00,
2013-09-17 06:10:00,43.1,34.7,30.35,SW,225,1.0,7.0,72,0.00,,,0.00,WeatherCatV1.15B25,2013-09-17 10:10:00,
2013-09-17 06:15:00,43.1,34.7,30.35,SW,225,1.0,7.0,72,0.00,,,0.00,WeatherCatV1.15B25,2013-09-17 10:15:00,
2013-09-17 06:20:00,41.6,35.3,30.37,South,180,0.0,2.0,78,0.00,,,0.00,WeatherCatV1.15B25,2013-09-17 10:20:00,
2013-09-17 06:25:00,41.6,35.3,30.37,South,180,0.0,2.0,78,0.00,,,0.00,WeatherCatV1.15B25,2013-09-17 10:25:00,
2013-09-17 06:30:00,41.6,35.3,30.37,South,180,0.0,2.0,78,0.00,,,0.00,WeatherCatV1.15B25,2013-09-17 10:30:00,
2013-09-17 06:35:00,40.8,34.8,30.38,South,180,0.0,0.0,79,0.00,,,0.00,WeatherCatV1.15B25,2013-09-17 10:35:00,
2013-09-17 06:40:00,40.8,34.8,30.38,South,180,0.0,0.0,79,0.00,,,0.00,WeatherCatV1.15B25,2013-09-17 10:40:00,
2013-09-17 06:45:00,40.8,34.8,30.38,South,180,0.0,0.0,79,0.00,,,0.00,WeatherCatV1.15B25,2013-09-17 10:45:00,
2013-09-17 06:50:00,40.2,35.8,30.38,South,180,0.0,1.0,84,0.00,,,0.00,WeatherCatV1.15B25,2013-09-17 10:50:00,
2013-09-17 06:55:00,40.2,35.8,30.38,South,180,0.0,1.0,84,0.00,,,0.00,WeatherCatV1.15B25,2013-09-17 10:55:00,
2013-09-17 07:00:00,40.2,35.8,30.38,South,180,0.0,1.0,84,0.00,,,0.00,WeatherCatV1.15B25,2013-09-17 11:00:00,
2013-09-17 07:05:00,39.9,35.8,30.38,South,180,0.0,0.0,85,0.00,,,0.00,WeatherCatV1.15B25,2013-09-17 11:05:00,
2013-09-17 07:10:00,39.9,35.8,30.38,South,180,0.0,0.0,85,0.00,,,0.00,WeatherCatV1.15B25,2013-09-17 11:10:00,
2013-09-17 07:15:00,39.9,35.8,30.38,South,180,0.0,0.0,85,0.00,,,0.00,WeatherCatV1.15B25,2013-09-17 11:15:00,
2013-09-17 07:20:00,39.8,35.7,30.39,South,180,0.0,0.0,85,0.00,,,0.00,WeatherCatV1.15B25,2013-09-17 11:20:00,
2013-09-17 07:25:00,39.8,35.7,30.39,South,180,0.0,0.0,85,0.00,,,0.00,WeatherCatV1.15B25,2013-09-17 11:25:00,
2013-09-17 07:30:00,39.8,35.7,30.39,South,180,0.0,0.0,85,0.00,,,0.00,WeatherCatV1.15B25,2013-09-17 11:30:00,
2013-09-17 07:35:00,39.5,35.7,30.40,South,180,0.0,0.0,86,0.00,,,0.00,WeatherCatV1.15B25,2013-09-17 11:35:00,
2013-09-17 07:40:00,39.5,35.7,30.40,South,180,0.0,0.0,86,0.00,,,0.00,WeatherCatV1.15B25,2013-09-17 11:40:00,
2013-09-17 07:45:00,39.5,35.7,30.40,South,180,0.0,0.0,86,0.00,,,0.00,WeatherCatV1.15B25,2013-09-17 11:45:00,
2013-09-17 07:50:00,39.7,36.7,30.40,SSW,202,0.0,1.0,89,0.00,,,0.00,WeatherCatV1.15B25,2013-09-17 11:50:00,
2013-09-17 07:55:00,39.7,36.7,30.40,SSW,202,0.0,1.0,89,0.00,,,0.00,WeatherCatV1.15B25,2013-09-17 11:55:00,
2013-09-17 08:00:00,39.7,36.7,30.40,SSW,202,0.0,1.0,89,0.00,,,0.00,WeatherCatV1.15B25,2013-09-17 12:00:00,
2013-09-17 08:05:00,40.4,37.7,30.41,SSW,202,0.0,0.0,90,0.00,,,0.00,WeatherCatV1.15B25,2013-09-17 12:05:00,
2013-09-17 08:10:00,40.4,37.7,30.41,SSW,202,0.0,0.0,90,0.00,,,0.00,WeatherCatV1.15B25,2013-09-17 12:10:00,
2013-09-17 08:15:00,40.4,37.7,30.41,SSW,202,0.0,0.0,90,0.00,,,0.00,WeatherCatV1.15B25,2013-09-17 12:15:00,
2013-09-17 08:20:00,41.4,38.4,30.41,SSW,202,0.0,1.0,89,0.00,,,0.00,WeatherCatV1.15B25,2013-09-17 12:20:00,
2013-09-17 08:25:00,41.4,38.4,30.41,SSW,202,0.0,1.0,89,0.00,,,0.00,WeatherCatV1.15B25,2013-09-17 12:25:00,
2013-09-17 08:30:00,41.4,38.4,30.41,SSW,202,0.0,1.0,89,0.00,,,0.00,WeatherCatV1.15B25,2013-09-17 12:30:00,
2013-09-17 08:35:00,43.4,38.0,30.41,South,180,1.0,10.0,81,0.00,,,0.00,WeatherCatV1.15B25,2013-09-17 12:35:00,
2013-09-17 08:40:00,43.4,38.0,30.41,South,180,1.0,10.0,81,0.00,,,0.00,WeatherCatV1.15B25,2013-09-17 12:40:00,
2013-09-17 08:45:00,43.4,38.0,30.41,South,180,1.0,10.0,81,0.00,,,0.00,WeatherCatV1.15B25,2013-09-17 12:45:00,
2013-09-17 08:50:00,45.6,38.8,30.41,SSE,158,1.0,10.0,77,0.00,,,0.00,WeatherCatV1.15B25,2013-09-17 12:50:00,
2013-09-17 08:55:00,45.6,38.8,30.41,SSE,158,1.0,10.0,77,0.00,,,0.00,WeatherCatV1.15B25,2013-09-17 12:55:00,
2013-09-17 09:00:00,45.6,38.8,30.41,SSE,158,1.0,10.0,77,0.00,,,0.00,WeatherCatV1.15B25,2013-09-17 13:00:00,
2013-09-17 09:05:00,46.8,39.6,30.41,SSE,158,1.0,4.0,76,0.00,,,0.00,WeatherCatV1.15B25,2013-09-17 13:05:00,
2013-09-17 09:10:00,46.8,39.6,30.41,SSE,158,1.0,4.0,76,0.00,,,0.00,WeatherCatV1.15B25,2013-09-17 13:10:00,
2013-09-17 09:15:00,46.8,39.6,30.41,SSE,158,1.0,4.0,76,0.00,,,0.00,WeatherCatV1.15B25,2013-09-17 13:15:00,
2013-09-17 09:20:00,48.1,39.1,30.41,SSE,158,1.0,8.0,71,0.00,,,0.00,WeatherCatV1.15B25,2013-09-17 13:20:00,
2013-09-17 09:25:00,48.1,39.1,30.41,SSE,158,1.0,8.0,71,0.00,,,0.00,WeatherCatV1.15B25,2013-09-17 13:25:00,
2013-09-17 09:30:00,48.1,39.1,30.41,SSE,158,1.0,8.0,71,0.00,,,0.00,WeatherCatV1.15B25,2013-09-17 13:30:00,
2013-09-17 09:35:00,50.2,40.0,30.41,East,90,1.0,9.0,68,0.00,,,0.00,WeatherCatV1.15B25,2013-09-17 13:35:00,
2013-09-17 09:40:00,50.2,40.0,30.41,East,90,1.0,9.0,68,0.00,,,0.00,WeatherCatV1.15B25,2013-09-17 13:40:00,
2013-09-17 09:45:00,50.2,40.0,30.41,East,90,1.0,9.0,68,0.00,,,0.00,WeatherCatV1.15B25,2013-09-17 13:45:00,
2013-09-17 09:50:00,51.3,41.1,30.40,ESE,112,2.0,6.0,68,0.00,,,0.00,WeatherCatV1.15B25,2013-09-17 13:50:00,
2013-09-17 09:55:00,51.3,41.1,30.40,ESE,112,2.0,6.0,68,0.00,,,0.00,WeatherCatV1.15B25,2013-09-17 13:55:00,
2013-09-17 10:00:00,51.3,41.1,30.40,ESE,112,2.0,6.0,68,0.00,,,0.00,WeatherCatV1.15B25,2013-09-17 14:00:00,
2013-09-17 10:05:00,51.4,41.6,30.41,ESE,112,2.0,7.0,69,0.00,,,0.00,WeatherCatV1.15B25,2013-09-17 14:05:00,
2013-09-17 10:10:00,51.4,41.6,30.41,ESE,112,2.0,7.0,69,0.00,,,0.00,WeatherCatV1.15B25,2013-09-17 14:10:00,
2013-09-17 10:15:00,51.4,41.6,30.41,ESE,112,2.0,7.0,69,0.00,,,0.00,WeatherCatV1.15B25,2013-09-17 14:15:00,
2013-09-17 10:20:00,52.0,40.6,30.40,ESE,112,1.0,4.0,65,0.00,,,0.00,WeatherCatV1.15B25,2013-09-17 14:20:00,
2013-09-17 10:25:00,52.0,40.6,30.40,ESE,112,1.0,4.0,65,0.00,,,0.00,WeatherCatV1.15B25,2013-09-17 14:25:00,
2013-09-17 10:30:00,52.0,40.6,30.40,ESE,112,1.0,4.0,65,0.00,,,0.00,WeatherCatV1.15B25,2013-09-17 14:30:00,
2013-09-17 10:35:00,52.9,38.5,30.40,South,180,1.0,5.0,58,0.00,,,0.00,WeatherCatV1.15B25,2013-09-17 14:35:00,
2013-09-17 10:40:00,52.9,38.5,30.40,South,180,1.0,5.0,58,0.00,,,0.00,WeatherCatV1.15B25,2013-09-17 14:40:00,
2013-09-17 10:45:00,52.9,38.5,30.40,South,180,1.0,5.0,58,0.00,,,0.00,WeatherCatV1.15B25,2013-09-17 14:45:00,
2013-09-17 10:50:00,54.2,42.3,30.39,SSE,158,1.0,7.0,64,0.00,,,0.00,WeatherCatV1.15B25,2013-09-17 14:50:00,
2013-09-17 10:55:00,54.2,42.3,30.39,SSE,158,1.0,7.0,64,0.00,,,0.00,WeatherCatV1.15B25,2013-09-17 14:55:00,
2013-09-17 11:00:00,54.2,42.3,30.39,SSE,158,1.0,7.0,64,0.00,,,0.00,WeatherCatV1.15B25,2013-09-17 15:00:00,
2013-09-17 11:05:00,55.3,42.5,30.39,SSE,158,1.0,5.0,62,0.00,,,0.00,WeatherCatV1.15B25,2013-09-17 15:05:00,
2013-09-17 11:10:00,55.3,42.5,30.39,SSE,158,1.0,5.0,62,0.00,,,0.00,WeatherCatV1.15B25,2013-09-17 15:10:00,
2013-09-17 11:15:00,55.3,42.5,30.39,SSE,158,1.0,5.0,62,0.00,,,0.00,WeatherCatV1.15B25,2013-09-17 15:15:00,
2013-09-17 11:20:00,56.2,43.4,30.39,ESE,112,1.0,5.0,62,0.00,,,0.00,WeatherCatV1.15B25,2013-09-17 15:20:00,
2013-09-17 11:25:00,56.2,43.4,30.39,ESE,112,1.0,5.0,62,0.00,,,0.00,WeatherCatV1.15B25,2013-09-17 15:25:00,
2013-09-17 11:30:00,56.2,43.4,30.39,ESE,112,1.0,5.0,62,0.00,,,0.00,WeatherCatV1.15B25,2013-09-17 15:30:00,
2013-09-17 11:35:00,57.2,45.5,30.39,SE,135,1.0,6.0,65,0.00,,,0.00,WeatherCatV1.15B25,2013-09-17 15:35:00,
2013-09-17 11:40:00,57.2,45.5,30.39,SE,135,1.0,6.0,65,0.00,,,0.00,WeatherCatV1.15B25,2013-09-17 15:40:00,
2013-09-17 11:45:00,57.2,45.5,30.39,SE,135,1.0,6.0,65,0.00,,,0.00,WeatherCatV1.15B25,2013-09-17 15:45:00,
2013-09-17 11:50:00,58.9,45.9,30.39,SE,135,1.0,5.0,62,0.00,,,0.00,WeatherCatV1.15B25,2013-09-17 15:50:00,
2013-09-17 11:55:00,58.9,45.9,30.39,SE,135,1.0,5.0,62,0.00,,,0.00,WeatherCatV1.15B25,2013-09-17 15:55:00,
2013-09-17 12:00:00,58.9,45.9,30.39,SE,135,1.0,5.0,62,0.00,,,0.00,WeatherCatV1.15B25,2013-09-17 16:00:00,
2013-09-17 12:05:00,60.9,46.0,30.38,SE,135,1.0,4.0,58,0.00,,,0.00,WeatherCatV1.15B25,2013-09-17 16:05:00,
2013-09-17 12:10:00,60.9,46.0,30.38,SE,135,1.0,4.0,58,0.00,,,0.00,WeatherCatV1.15B25,2013-09-17 16:10:00,
2013-09-17 12:15:00,60.9,46.0,30.38,SE,135,1.0,4.0,58,0.00,,,0.00,WeatherCatV1.15B25,2013-09-17 16:15:00,
2013-09-17 12:20:00,62.2,48.6,30.38,East,90,1.0,5.0,61,0.00,,,0.00,WeatherCatV1.15B25,2013-09-17 16:20:00,
2013-09-17 12:25:00,62.2,48.6,30.38,East,90,1.0,5.0,61,0.00,,,0.00,WeatherCatV1.15B25,2013-09-17 16:25:00,
2013-09-17 12:30:00,62.2,48.6,30.38,East,90,1.0,5.0,61,0.00,,,0.00,WeatherCatV1.15B25,2013-09-17 16:30:00,
2013-09-17 12:35:00,63.5,46.1,30.37,SE,135,1.0,4.0,53,0.00,,,0.00,WeatherCatV1.15B25,2013-09-17 16:35:00,
2013-09-17 12:40:00,63.5,46.1,30.37,SE,135,1.0,4.0,53,0.00,,,0.00,WeatherCatV1.15B25,2013-09-17 16:40:00,
2013-09-17 12:45:00,63.5,46.1,30.37,SE,135,1.0,4.0,53,0.00,,,0.00,WeatherCatV1.15B25,2013-09-17 16:45:00,
2013-09-17 12:50:00,64.2,45.2,30.36,ESE,112,1.0,7.0,50,0.00,,,0.00,WeatherCatV1.15B25,2013-09-17 16:50:00,
2013-09-17 12:55:00,64.2,45.2,30.36,ESE,112,1.0,7.0,50,0.00,,,0.00,WeatherCatV1.15B25,2013-09-17 16:55:00,
2013-09-17 13:00:00,64.2,45.2,30.36,ESE,112,1.0,7.0,50,0.00,,,0.00,WeatherCatV1.15B25,2013-09-17 17:00:00,
2013-09-17 13:05:00,63.0,46.1,30.35,ESE,112,2.0,7.0,54,0.00,,,0.00,WeatherCatV1.15B25,2013-09-17 17:05:00,
2013-09-17 13:10:00,63.0,46.1,30.35,ESE,112,2.0,7.0,54,0.00,,,0.00,WeatherCatV1.15B25,2013-09-17 17:10:00,
2013-09-17 13:15:00,63.0,46.1,30.35,ESE,112,2.0,7.0,54,0.00,,,0.00,WeatherCatV1.15B25,2013-09-17 17:15:00,
2013-09-17 13:20:00,63.7,45.7,30.35,SE,135,2.0,6.0,52,0.00,,,0.00,WeatherCatV1.15B25,2013-09-17 17:20:00,
2013-09-17 13:25:00,63.7,45.7,30.35,SE,135,2.0,6.0,52,0.00,,,0.00,WeatherCatV1.15B25,2013-09-17 17:25:00,
2013-09-17 13:30:00,63.7,45.7,30.35,SE,135,2.0,6.0,52,0.00,,,0.00,WeatherCatV1.15B25,2013-09-17 17:30:00,
2013-09-17 13:35:00,64.3,47.8,30.35,SE,135,2.0,7.0,55,0.00,,,0.00,WeatherCatV1.15B25,2013-09-17 17:35:00,
2013-09-17 13:40:00,64.3,47.8,30.35,SE,135,2.0,7.0,55,0.00,,,0.00,WeatherCatV1.15B25,2013-09-17 17:40:00,
2013-09-17 13:45:00,64.3,47.8,30.35,SE,135,2.0,7.0,55,0.00,,,0.00,WeatherCatV1.15B25,2013-09-17 17:45:00,
2013-09-17 13:50:00,65.0,45.4,30.34,ESE,112,1.0,6.0,49,0.00,,,0.00,WeatherCatV1.15B25,2013-09-17 17:50:00,
2013-09-17 13:55:00,65.0,45.4,30.34,ESE,112,1.0,6.0,49,0.00,,,0.00,WeatherCatV1.15B25,2013-09-17 17:55:00,
2013-09-17 14:00:00,65.0,45.4,30.34,ESE,112,1.0,6.0,49,0.00,,,0.00,WeatherCatV1.15B25,2013-09-17 18:00:00,
2013-09-17 14:05:00,64.9,43.6,30.33,ESE,112,1.0,7.0,46,0.00,,,0.00,WeatherCatV1.15B25,2013-09-17 18:05:00,
2013-09-17 14:10:00,64.9,43.6,30.33,ESE,112,1.0,7.0,46,0.00,,,0.00,WeatherCatV1.15B25,2013-09-17 18:10:00,
2013-09-17 14:15:00,64.9,43.6,30.33,ESE,112,1.0,7.0,46,0.00,,,0.00,WeatherCatV1.15B25,2013-09-17 18:15:00,
2013-09-17 14:20:00,65.6,45.4,30.33,ESE,112,2.0,6.0,48,0.00,,,0.00,WeatherCatV1.15B25,2013-09-17 18:20:00,
2013-09-17 14:25:00,65.6,45.4,30.33,ESE,112,2.0,6.0,48,0.00,,,0.00,WeatherCatV1.15B25,2013-09-17 18:25:00,
2013-09-17 14:30:00,65.6,45.4,30.33,ESE,112,2.0,6.0,48,0.00,,,0.00,WeatherCatV1.15B25,2013-09-17 18:30:00,
2013-09-17 14:35:00,67.1,45.6,30.32,SE,135,1.0,6.0,46,0.00,,,0.00,WeatherCatV1.15B25,2013-09-17 18:35:00,
2013-09-17 14:40:00,67.1,45.6,30.32,SE,135,1.0,6.0,46,0.00,,,0.00,WeatherCatV1.15B25,2013-09-17 18:40:00,
2013-09-17 14:45:00,67.1,45.6,30.32,SE,135,1.0,6.0,46,0.00,,,0.00,WeatherCatV1.15B25,2013-09-17 18:45:00,
2013-09-17 14:50:00,67.3,47.5,30.32,SE,135,1.0,4.0,49,0.00,,,0.00,WeatherCatV1.15B25,2013-09-17 18:50:00,
2013-09-17 14:55:00,67.3,47.5,30.32,SE,135,1.0,4.0,49,0.00,,,0.00,WeatherCatV1.15B25,2013-09-17 18:55:00,
2013-09-17 15:00:00,67.3,47.5,30.32,SE,135,1.0,4.0,49,0.00,,,0.00,WeatherCatV1.15B25,2013-09-17 19:00:00,
2013-09-17 15:05:00,66.5,42.7,30.31,ESE,112,1.0,5.0,42,0.00,,,0.00,WeatherCatV1.15B25,2013-09-17 19:05:00,
2013-09-17 15:10:00,66.5,42.7,30.31,ESE,112,1.0,5.0,42,0.00,,,0.00,WeatherCatV1.15B25,2013-09-17 19:10:00,
2013-09-17 15:15:00,66.5,42.7,30.31,ESE,112,1.0,5.0,42,0.00,,,0.00,WeatherCatV1.15B25,2013-09-17 19:15:00,
2013-09-17 15:20:00,65.5,43.0,30.31,SE,135,2.0,7.0,44,0.00,,,0.00,WeatherCatV1.15B25,2013-09-17 19:20:00,
2013-09-17 15:25:00,65.5,43.0,30.31,SE,135,2.0,7.0,44,0.00,,,0.00,WeatherCatV1.15B25,2013-09-17 19:25:00,
2013-09-17 15:30:00,65.5,43.0,30.31,SE,135,2.0,7.0,44,0.00,,,0.00,WeatherCatV1.15B25,2013-09-17 19:30:00,
2013-09-17 15:35:00,65.4,45.7,30.31,SE,135,1.0,6.0,49,0.00,,,0.00,WeatherCatV1.15B25,2013-09-17 19:35:00,
2013-09-17 15:40:00,65.4,45.7,30.31,SE,135,1.0,6.0,49,0.00,,,0.00,WeatherCatV1.15B25,2013-09-17 19:40:00,
2013-09-17 15:45:00,65.4,45.7,30.31,SE,135,1.0,6.0,49,0.00,,,0.00,WeatherCatV1.15B25,2013-09-17 19:45:00,
2013-09-17 15:50:00,66.2,46.5,30.30,SE,135,1.0,5.0,49,0.00,,,0.00,WeatherCatV1.15B25,2013-09-17 19:50:00,
2013-09-17 15:55:00,66.2,46.5,30.30,SE,135,1.0,5.0,49,0.00,,,0.00,WeatherCatV1.15B25,2013-09-17 19:55:00,
2013-09-17 16:00:00,66.2,46.5,30.30,SE,135,1.0,5.0,49,0.00,,,0.00,WeatherCatV1.15B25,2013-09-17 20:00:00,
2013-09-17 16:05:00,67.3,47.5,30.30,ESE,112,0.0,2.0,49,0.00,,,0.00,WeatherCatV1.15B25,2013-09-17 20:05:00,
2013-09-17 16:10:00,67.3,47.5,30.30,ESE,112,0.0,2.0,49,0.00,,,0.00,WeatherCatV1.15B25,2013-09-17 20:10:00,
2013-09-17 16:15:00,67.3,47.5,30.30,ESE,112,0.0,2.0,49,0.00,,,0.00,WeatherCatV1.15B25,2013-09-17 20:15:00,
2013-09-17 16:20:00,66.0,49.8,30.30,ESE,112,1.0,4.0,56,0.00,,,0.00,WeatherCatV1.15B25,2013-09-17 20:20:00,
2013-09-17 16:25:00,66.0,49.8,30.30,ESE,112,1.0,4.0,56,0.00,,,0.00,WeatherCatV1.15B25,2013-09-17 20:25:00,
2013-09-17 16:30:00,66.0,49.8,30.30,ESE,112,1.0,4.0,56,0.00,,,0.00,WeatherCatV1.15B25,2013-09-17 20:30:00,
2013-09-17 16:35:00,63.8,49.2,30.30,ESE,112,0.0,3.0,59,0.00,,,0.00,WeatherCatV1.15B25,2013-09-17 20:35:00,
2013-09-17 16:40:00,63.8,49.2,30.30,ESE,112,0.0,3.0,59,0.00,,,0.00,WeatherCatV1.15B25,2013-09-17 20:40:00,
2013-09-17 16:45:00,63.8,49.2,30.30,ESE,112,0.0,3.0,59,0.00,,,0.00,WeatherCatV1.15B25,2013-09-17 20:45:00,
2013-09-17 16:50:00,61.7,50.6,30.30,ESE,112,0.0,3.0,67,0.00,,,0.00,WeatherCatV1.15B25,2013-09-17 20:50:00,
2013-09-17 16:55:00,61.7,50.6,30.30,ESE,112,0.0,3.0,67,0.00,,,0.00,WeatherCatV1.15B25,2013-09-17 20:55:00,
2013-09-17 17:00:00,61.7,50.6,30.30,ESE,112,0.0,3.0,67,0.00,,,0.00,WeatherCatV1.15B25,2013-09-17 21:00:00,
2013-09-17 17:05:00,60.2,50.4,30.30,ESE,112,0.0,2.0,70,0.00,,,0.00,WeatherCatV1.15B25,2013-09-17 21:05:00,
2013-09-17 17:10:00,60.2,50.4,30.30,ESE,112,0.0,2.0,70,0.00,,,0.00,WeatherCatV1.15B25,2013-09-17 21:10:00,
2013-09-17 17:15:00,60.2,50.4,30.30,ESE,112,0.0,2.0,70,0.00,,,0.00,WeatherCatV1.15B25,2013-09-17 21:15:00,
2013-09-17 17:20:00,59.0,49.6,30.30,ESE,112,0.0,2.0,71,0.00,,,0.00,WeatherCatV1.15B25,2013-09-17 21:20:00,
2013-09-17 17:25:00,59.0,49.6,30.30,ESE,112,0.0,2.0,71,0.00,,,0.00,WeatherCatV1.15B25,2013-09-17 21:25:00,
2013-09-17 17:30:00,59.0,49.6,30.30,ESE,112,0.0,2.0,71,0.00,,,0.00,WeatherCatV1.15B25,2013-09-17 21:30:00,
2013-09-17 17:35:00,58.0,48.7,30.30,ESE,112,0.0,1.0,71,0.00,,,0.00,WeatherCatV1.15B25,2013-09-17 21:35:00,
2013-09-17 17:40:00,58.0,48.7,30.30,ESE,112,0.0,1.0,71,0.00,,,0.00,WeatherCatV1.15B25,2013-09-17 21:40:00,
2013-09-17 17:45:00,58.0,48.7,30.30,ESE,112,0.0,1.0,71,0.00,,,0.00,WeatherCatV1.15B25,2013-09-17 21:45:00,
2013-09-17 17:50:00,57.4,48.1,30.30,ESE,112,0.0,0.0,71,0.00,,,0.00,WeatherCatV1.15B25,2013-09-17 21:50:00,
2013-09-17 17:55:00,57.4,48.1,30.30,ESE,112,0.0,0.0,71,0.00,,,0.00,WeatherCatV1.15B25,2013-09-17 21:55:00,
2013-09-17 18:00:00,57.4,48.1,30.30,ESE,112,0.0,0.0,71,0.00,,,0.00,WeatherCatV1.15B25,2013-09-17 22:00:00,
2013-09-17 18:05:00,55.2,47.1,30.31,ESE,112,0.0,0.0,74,0.00,,,0.00,WeatherCatV1.15B25,2013-09-17 22:05:00,
2013-09-17 18:10:00,55.2,47.1,30.31,ESE,112,0.0,0.0,74,0.00,,,0.00,WeatherCatV1.15B25,2013-09-17 22:10:00,
2013-09-17 18:15:00,55.2,47.1,30.31,ESE,112,0.0,0.0,74,0.00,,,0.00,WeatherCatV1.15B25,2013-09-17 22:15:00,
2013-09-17 18:20:00,53.0,46.7,30.31,ESE,112,0.0,0.0,79,0.00,,,0.00,WeatherCatV1.15B25,2013-09-17 22:20:00,
2013-09-17 18:25:00,53.0,46.7,30.31,ESE,112,0.0,0.0,79,0.00,,,0.00,WeatherCatV1.15B25,2013-09-17 22:25:00,
2013-09-17 18:30:00,53.0,46.7,30.31,ESE,112,0.0,0.0,79,0.00,,,0.00,WeatherCatV1.15B25,2013-09-17 22:30:00,
2013-09-17 18:35:00,51.3,46.3,30.31,ESE,112,0.0,0.0,83,0.00,,,0.00,WeatherCatV1.15B25,2013-09-17 22:35:00,
2013-09-17 18:40:00,51.3,46.3,30.31,ESE,112,0.0,0.0,83,0.00,,,0.00,WeatherCatV1.15B25,2013-09-17 22:40:00,
2013-09-17 18:45:00,51.3,46.3,30.31,ESE,112,0.0,0.0,83,0.00,,,0.00,WeatherCatV1.15B25,2013-09-17 22:45:00,
2013-09-17 18:50:00,49.9,45.3,30.32,ESE,112,0.0,0.0,84,0.00,,,0.00,WeatherCatV1.15B25,2013-09-17 22:50:00,
2013-09-17 18:55:00,49.9,45.3,30.32,ESE,112,0.0,0.0,84,0.00,,,0.00,WeatherCatV1.15B25,2013-09-17 22:55:00,
2013-09-17 19:00:00,49.9,45.3,30.32,ESE,112,0.0,0.0,84,0.00,,,0.00,WeatherCatV1.15B25,2013-09-17 23:00:00,
2013-09-17 19:05:00,49.0,44.7,30.32,ESE,112,0.0,1.0,85,0.00,,,0.00,WeatherCatV1.15B25,2013-09-17 23:05:00,
2013-09-17 19:10:00,49.0,44.7,30.32,ESE,112,0.0,1.0,85,0.00,,,0.00,WeatherCatV1.15B25,2013-09-17 23:10:00,
2013-09-17 19:15:00,49.0,44.7,30.32,ESE,112,0.0,1.0,85,0.00,,,0.00,WeatherCatV1.15B25,2013-09-17 23:15:00,
2013-09-17 19:20:00,48.4,44.4,30.32,ESE,112,0.0,0.0,86,0.00,,,0.00,WeatherCatV1.15B25,2013-09-17 23:20:00,
2013-09-17 19:25:00,48.4,44.4,30.32,ESE,112,0.0,0.0,86,0.00,,,0.00,WeatherCatV1.15B25,2013-09-17 23:25:00,
2013-09-17 19:30:00,48.4,44.4,30.32,ESE,112,0.0,0.0,86,0.00,,,0.00,WeatherCatV1.15B25,2013-09-17 23:30:00,
2013-09-17 19:35:00,47.9,44.5,30.32,ESE,112,0.0,0.0,88,0.00,,,0.00,WeatherCatV1.15B25,2013-09-17 23:35:00,
2013-09-17 19:40:00,47.9,44.5,30.32,ESE,112,0.0,0.0,88,0.00,,,0.00,WeatherCatV1.15B25,2013-09-17 23:40:00,
2013-09-17 19:45:00,47.9,44.5,30.32,ESE,112,0.0,0.0,88,0.00,,,0.00,WeatherCatV1.15B25,2013-09-17 23:45:00,
2013-09-17 19:50:00,46.9,43.5,30.32,ESE,112,0.0,0.0,88,0.00,,,0.00,WeatherCatV1.15B25,2013-09-17 23:50:00,
2013-09-17 19:55:00,46.9,43.5,30.32,ESE,112,0.0,0.0,88,0.00,,,0.00,WeatherCatV1.15B25,2013-09-17 23:55:00,
2013-09-17 20:00:00,46.9,43.5,30.32,ESE,112,0.0,0.0,88,0.00,,,0.00,WeatherCatV1.15B25,2013-09-18 00:00:00,
2013-09-17 20:05:00,46.0,42.9,30.33,ESE,112,0.0,0.0,89,0.00,,,0.00,WeatherCatV1.15B25,2013-09-18 00:05:00,
2013-09-17 20:10:00,46.0,42.9,30.33,ESE,112,0.0,0.0,89,0.00,,,0.00,WeatherCatV1.15B25,2013-09-18 00:10:00,
2013-09-17 20:15:00,46.0,42.9,30.33,ESE,112,0.0,0.0,89,0.00,,,0.00,WeatherCatV1.15B25,2013-09-18 00:15:00,
2013-09-17 20:20:00,45.8,43.0,30.32,ESE,112,0.0,0.0,90,0.00,,,0.00,WeatherCatV1.15B25,2013-09-18 00:20:00,
2013-09-17 20:25:00,45.8,43.0,30.32,ESE,112,0.0,0.0,90,0.00,,,0.00,WeatherCatV1.15B25,2013-09-18 00:25:00,
2013-09-17 20:30:00,45.8,43.0,30.32,ESE,112,0.0,0.0,90,0.00,,,0.00,WeatherCatV1.15B25,2013-09-18 00:30:00,
2013-09-17 20:35:00,45.5,42.7,30.32,ESE,112,0.0,0.0,90,0.00,,,0.00,WeatherCatV1.15B25,2013-09-18 00:35:00,
2013-09-17 20:40:00,45.5,42.7,30.32,ESE,112,0.0,0.0,90,0.00,,,0.00,WeatherCatV1.15B25,2013-09-18 00:40:00,
2013-09-17 20:45:00,45.5,42.7,30.32,ESE,112,0.0,0.0,90,0.00,,,0.00,WeatherCatV1.15B25,2013-09-18 00:45:00,
2013-09-17 20:50:00,45.5,42.7,30.33,ESE,112,0.0,0.0,90,0.00,,,0.00,WeatherCatV1.15B25,2013-09-18 00:50:00,
2013-09-17 20:55:00,45.5,42.7,30.33,ESE,112,0.0,0.0,90,0.00,,,0.00,WeatherCatV1.15B25,2013-09-18 00:55:00,
2013-09-17 21:00:00,45.5,42.7,30.33,ESE,112,0.0,0.0,90,0.00,,,0.00,WeatherCatV1.15B25,2013-09-18 01:00:00,
2013-09-17 21:05:00,45.0,42.2,30.32,ESE,112,0.0,0.0,90,0.00,,,0.00,WeatherCatV1.15B25,2013-09-18 01:05:00,
2013-09-17 21:10:00,45.0,42.2,30.32,ESE,112,0.0,0.0,90,0.00,,,0.00,WeatherCatV1.15B25,2013-09-18 01:10:00,
2013-09-17 21:15:00,45.0,42.2,30.32,ESE,112,0.0,0.0,90,0.00,,,0.00,WeatherCatV1.15B25,2013-09-18 01:15:00,
2013-09-17 21:20:00,44.6,42.1,30.32,ESE,112,0.0,1.0,91,0.00,,,0.00,WeatherCatV1.15B25,2013-09-18 01:20:00,
2013-09-17 21:25:00,44.6,42.1,30.32,ESE,112,0.0,1.0,91,0.00,,,0.00,WeatherCatV1.15B25,2013-09-18 01:25:00,
2013-09-17 21:30:00,44.6,42.1,30.32,ESE,112,0.0,1.0,91,0.00,,,0.00,WeatherCatV1.15B25,2013-09-18 01:30:00,
2013-09-17 21:35:00,44.5,42.0,30.33,ESE,112,0.0,1.0,91,0.00,,,0.00,WeatherCatV1.15B25,2013-09-18 01:35:00,
2013-09-17 21:40:00,44.5,42.0,30.33,ESE,112,0.0,1.0,91,0.00,,,0.00,WeatherCatV1.15B25,2013-09-18 01:40:00,
2013-09-17 21:45:00,44.5,42.0,30.33,ESE,112,0.0,1.0,91,0.00,,,0.00,WeatherCatV1.15B25,2013-09-18 01:45:00,
2013-09-17 21:50:00,44.7,42.0,30.32,ESE,112,0.0,0.0,90,0.00,,,0.00,WeatherCatV1.15B25,2013-09-18 01:50:00,
2013-09-17 21:55:00,44.7,42.0,30.32,ESE,112,0.0,0.0,90,0.00,,,0.00,WeatherCatV1.15B25,2013-09-18 01:55:00,
2013-09-17 22:00:00,44.7,42.0,30.32,ESE,112,0.0,0.0,90,0.00,,,0.00,WeatherCatV1.15B25,2013-09-18 02:00:00,
2013-09-17 22:05:00,44.2,41.5,30.33,ESE,112,0.0,0.0,90,0.00,,,0.00,WeatherCatV1.15B25,2013-09-18 02:05:00,
2013-09-17 22:10:00,44.2,41.5,30.33,ESE,112,0.0,0.0,90,0.00,,,0.00,WeatherCatV1.15B25,2013-09-18 02:10:00,
2013-09-17 22:15:00,44.2,41.5,30.33,ESE,112,0.0,0.0,90,0.00,,,0.00,WeatherCatV1.15B25,2013-09-18 02:15:00,
2013-09-17 22:20:00,43.6,40.9,30.32,ESE,112,0.0,0.0,90,0.00,,,0.00,WeatherCatV1.15B25,2013-09-18 02:20:00,
2013-09-17 22:25:00,43.6,40.9,30.32,ESE,112,0.0,0.0,90,0.00,,,0.00,WeatherCatV1.15B25,2013-09-18 02:25:00,
2013-09-17 22:30:00,43.6,40.9,30.32,ESE,112,0.0,0.0,90,0.00,,,0.00,WeatherCatV1.15B25,2013-09-18 02:30:00,
2013-09-17 22:35:00,43.1,40.7,30.32,ESE,112,0.0,0.0,91,0.00,,,0.00,WeatherCatV1.15B25,2013-09-18 02:35:00,
2013-09-17 22:40:00,43.1,40.7,30.32,ESE,112,0.0,0.0,91,0.00,,,0.00,WeatherCatV1.15B25,2013-09-18 02:40:00,
2013-09-17 22:45:00,43.1,40.7,30.32,ESE,112,0.0,0.0,91,0.00,,,0.00,WeatherCatV1.15B25,2013-09-18 02:45:00,
2013-09-17 22:50:00,42.5,40.1,30.31,ESE,112,0.0,0.0,91,0.00,,,0.00,WeatherCatV1.15B25,2013-09-18 02:50:00,
2013-09-17 22:55:00,42.5,40.1,30.31,ESE,112,0.0,0.0,91,0.00,,,0.00,WeatherCatV1.15B25,2013-09-18 02:55:00,
2013-09-17 23:00:00,42.5,40.1,30.31,ESE,112,0.0,0.0,91,0.00,,,0.00,WeatherCatV1.15B25,2013-09-18 03:00:00,
2013-09-17 23:05:00,42.3,40.1,30.32,ESE,112,0.0,1.0,92,0.00,,,0.00,WeatherCatV1.15B25,2013-09-18 03:05:00,
2013-09-17 23:10:00,42.3,40.1,30.32,ESE,112,0.0,1.0,92,0.00,,,0.00,WeatherCatV1.15B25,2013-09-18 03:10:00,
2013-09-17 23:15:00,42.3,40.1,30.32,ESE,112,0.0,1.0,92,0.00,,,0.00,WeatherCatV1.15B25,2013-09-18 03:15:00,
2013-09-17 23:20:00,42.2,40.0,30.31,ESE,112,0.0,0.0,92,0.00,,,0.00,WeatherCatV1.15B25,2013-09-18 03:20:00,
2013-09-17 23:25:00,42.2,40.0,30.31,ESE,112,0.0,0.0,92,0.00,,,0.00,WeatherCatV1.15B25,2013-09-18 03:25:00,
2013-09-17 23:30:00,42.2,40.0,30.31,ESE,112,0.0,0.0,92,0.00,,,0.00,WeatherCatV1.15B25,2013-09-18 03:30:00,
2013-09-17 23:35:00,41.6,39.5,30.31,ESE,112,0.0,0.0,92,0.00,,,0.00,WeatherCatV1.15B25,2013-09-18 03:35:00,
2013-09-17 23:40:00,41.6,39.5,30.31,ESE,112,0.0,0.0,92,0.00,,,0.00,WeatherCatV1.15B25,2013-09-18 03:40:00,
2013-09-17 23:45:00,41.6,39.5,30.31,ESE,112,0.0,0.0,92,0.00,,,0.00,WeatherCatV1.15B25,2013-09-18 03:45:00,
2013-09-17 23:50:00,41.4,39.3,30.30,ESE,112,0.0,0.0,92,0.00,,,0.00,WeatherCatV1.15B25,2013-09-18 03:50:00,
2013-09-17 23:55:00,41.4,39.3,30.30,ESE,112,0.0,0.0,92,0.00,,,0.00,WeatherCatV1.15B25,2013-09-18 03:55:00,